Ora Direzione Vento Velocita' Vento Media Vento Raffica Max. Temperatura Wind Chill Pioggia Pressione
01:15:34.083 °(E)7.0 Kts5.2 Kts9.5 Kts21.2 °C0.0 °C0.0 mm1012.2 Hpa
00:55:29.090 °(E)6.0 Kts6.0 Kts9.5 Kts21.2 °C0.0 °C0.0 mm1012.2 Hpa
00:34:12.097 °(E)6.6 Kts6.6 Kts9.5 Kts21.2 °C0.0 °C0.0 mm1012.2 Hpa
00:14:33.095 °(E)7.4 Kts6.8 Kts9.5 Kts21.2 °C0.0 °C0.0 mm1012.2 Hpa
23:54:32.086 °(E)8.2 Kts8.2 Kts11.7 Kts21.2 °C0.0 °C0.0 mm1012.2 Hpa
23:34:03.080 °(E)8.2 Kts8.2 Kts11.7 Kts21.3 °C0.0 °C0.0 mm1012.2 Hpa
23:15:17.079 °(E)8.2 Kts7.8 Kts11.7 Kts21.3 °C0.0 °C0.0 mm1012.2 Hpa
22:55:29.082 °(E)9.5 Kts7.4 Kts11.7 Kts21.3 °C0.0 °C0.0 mm1012.2 Hpa
22:34:14.056 °(NE)9.1 Kts6.4 Kts11.5 Kts21.4 °C0.0 °C0.0 mm1012.2 Hpa
22:15:17.095 °(E)9.5 Kts9.5 Kts11.5 Kts22.7 °C0.0 °C0.0 mm1011.2 Hpa
21:54:32.052 °(NE)2.7 Kts2.1 Kts11.5 Kts22.5 °C0.0 °C0.0 mm1011.2 Hpa
21:35:31.039 °(NE)2.5 Kts2.5 Kts11.5 Kts23.3 °C0.0 °C0.0 mm1011.2 Hpa
21:15:16.0331 °(NNW)2.7 Kts2.7 Kts11.5 Kts23.1 °C0.0 °C0.0 mm1011.2 Hpa
20:54:24.0263 °(W)1.6 Kts1.6 Kts11.5 Kts22.2 °C0.0 °C0.0 mm1011.2 Hpa
20:35:34.0252 °(WSW)4.3 Kts3.1 Kts11.5 Kts22.2 °C0.0 °C0.0 mm1011.2 Hpa
20:14:55.0273 °(W)4.3 Kts3.1 Kts11.5 Kts22.3 °C0.0 °C0.0 mm1011.2 Hpa
19:54:17.0269 °(W)5.4 Kts4.9 Kts11.5 Kts22.5 °C0.0 °C0.0 mm1011.2 Hpa
19:35:32.0259 °(W)2.3 Kts2.3 Kts11.5 Kts22.3 °C0.0 °C0.0 mm1011.2 Hpa
19:14:08.0263 °(W)4.9 Kts3.5 Kts11.5 Kts22.4 °C0.0 °C0.0 mm1011.2 Hpa
18:55:25.0268 °(W)6.4 Kts6.0 Kts11.5 Kts22.9 °C0.0 °C0.0 mm1011.2 Hpa